Hlavní strana
METAR-TAF:

METAR-TAF

Letiště :

Dar es Salaam, Tanzanie

zeměpisná šířka: 06-52S, zeměpisná délka: 039-12E, výška: 55 m

Aktuální stav počasí

Zpráva byla vytvořena před 42 minutami, v 17:00 UTC
Severovýchodní vítr 10 kt
Teplota 28°C
Vlhkost vzduchu 84%
Tlak 1009 hPa
Viditelnost 10 km a více
Skoro jasno ve výšce 1800 ft

METAR: HTDA 181700Z 04010KT 9999 FEW018 28/25 Q1009 NOSIG

Čas: 20:42 (17:42 UTC)

Předpověď počasí

Zpráva byla vytvořena před 42 minutami, v 17:00 UTC
Předpověď platná od 18 v 18 UTC do 19 v 24 UTC
Severovýchodní vítr 10 kt
Viditelnost 10 km a více
Skoro jasno ve výšce 1900 ft
Skoro jasno ve výšce 2000 ft, Cumulonimbus.

TAF: HTDA 181700Z 1818/1924 04010KT 9999 FEW019 FEW020CB

Stav a předpovědi počasí z více než 4 000 letišť (zprávy METAR a TAF).

Červené a žluté tečky na mapě představují dostupné meteorologické stanice.

Když kurzor umístíte na tečku, zobrazí se název stanice.

Pak kliknutím zobrazíte stav a předpověď počasí.

Chcete-li změnit mapu, kliknutím na zelené tlačítko se znaménkem +mapu přiblížíte, kliknutím na zelené tlačítko se znaménkem – mapu oddálíte a kliknutím na zelené šipky přejdete na sousední mapy.


METAR-TAF: